createdAt,value
2019-04-20T00:00:51.526Z,100152.73
2019-04-20T00:03:18.060Z,100153.30
2019-04-20T00:05:46.642Z,100157.37
2019-04-20T00:08:21.726Z,100156.36
2019-04-20T00:10:55.136Z,100149.37
2019-04-20T00:13:24.523Z,100142.20
2019-04-20T00:15:47.118Z,100144.34
2019-04-20T00:18:16.888Z,100146.47
2019-04-20T00:20:57.552Z,100146.75
2019-04-20T00:23:35.429Z,100141.66
2019-04-20T00:26:27.406Z,100142.91
2019-04-20T00:29:06.998Z,100139.43
2019-04-20T00:31:35.319Z,100139.43
2019-04-20T00:33:59.461Z,100139.62
2019-04-20T00:36:20.173Z,100134.23
2019-04-20T00:38:54.713Z,100138.95
2019-04-20T00:41:20.730Z,100132.16
2019-04-20T00:43:49.211Z,100135.84
2019-04-20T00:46:27.859Z,100129.78
2019-04-20T00:48:55.836Z,100136.43
2019-04-20T00:51:35.236Z,100128.94
2019-04-20T00:53:51.768Z,100126.05
2019-04-20T00:56:18.348Z,100123.99
2019-04-20T00:58:58.145Z,100122.88
2019-04-20T01:01:35.938Z,100128.46
2019-04-20T01:04:06.763Z,100131.05
2019-04-20T01:06:46.744Z,100123.62
2019-04-20T01:09:03.412Z,100127.05
2019-04-20T01:11:38.403Z,100129.53
2019-04-20T01:14:06.022Z,100125.70
2019-04-20T01:16:41.744Z,100127.97
2019-04-20T01:19:02.441Z,100123.91
2019-04-20T01:21:33.420Z,100124.98
2019-04-20T01:24:03.572Z,100117.84
2019-04-20T01:26:31.397Z,100122.83
2019-04-20T01:29:15.885Z,100128.69
2019-04-20T01:31:38.322Z,100133.06
2019-04-20T01:34:08.261Z,100131.57
2019-04-20T01:36:46.151Z,100129.79
2019-04-20T01:39:16.338Z,100123.61
2019-04-20T01:41:30.882Z,100132.83
2019-04-20T01:44:00.406Z,100130.61
2019-04-20T01:46:30.476Z,100128.61
2019-04-20T01:49:06.843Z,100131.08
2019-04-20T01:51:37.343Z,100128.58
2019-04-20T01:54:15.893Z,100129.95
2019-04-20T01:56:43.702Z,100128.33
2019-04-20T01:59:29.421Z,100128.94
2019-04-20T02:02:06.941Z,100130.46
2019-04-20T02:04:40.985Z,100131.81
2019-04-20T02:07:08.670Z,100137.09
2019-04-20T02:09:43.315Z,100135.23
2019-04-20T02:12:13.512Z,100135.37
2019-04-20T02:14:45.412Z,100135.70
2019-04-20T02:17:16.752Z,100135.55
2019-04-20T02:19:59.822Z,100136.66
2019-04-20T02:22:22.950Z,100124.73
2019-04-20T02:24:38.818Z,100124.73
2019-04-20T02:27:08.168Z,100135.45
2019-04-20T02:29:58.519Z,100133.76
2019-04-20T02:35:07.177Z,100131.88
2019-04-20T02:40:19.173Z,100135.37
2019-04-20T02:42:51.507Z,100129.56
2019-04-20T02:45:17.417Z,100129.64
2019-04-20T02:47:47.323Z,100133.72
2019-04-20T02:50:15.167Z,100129.00
2019-04-20T02:57:47.753Z,100116.36
2019-04-20T03:02:27.272Z,100124.69
2019-04-20T03:04:48.032Z,100126.39
2019-04-20T03:07:27.654Z,100122.41
2019-04-20T03:10:00.823Z,100123.50
2019-04-20T03:14:58.573Z,100124.64
2019-04-20T03:17:32.877Z,100129.00
2019-04-20T03:19:57.249Z,100126.61
2019-04-20T03:22:58.417Z,100124.03
2019-04-20T03:25:07.890Z,100123.08
2019-04-20T03:27:34.361Z,100128.61
2019-04-20T03:30:21.962Z,100117.52
2019-04-20T03:35:20.970Z,100124.00
2019-04-20T03:37:42.773Z,100123.44
2019-04-20T03:40:11.250Z,100126.02
2019-04-20T03:42:24.346Z,100125.50
2019-04-20T03:45:00.478Z,100120.03
2019-04-20T03:47:33.755Z,100123.48
2019-04-20T03:50:20.184Z,100121.39
2019-04-20T03:52:43.677Z,100122.42
2019-04-20T03:55:19.931Z,100124.13
2019-04-20T03:57:57.358Z,100116.95
2019-04-20T04:00:42.998Z,100114.81
2019-04-20T04:03:29.444Z,100118.14
2019-04-20T04:05:46.956Z,100114.91
2019-04-20T04:08:17.046Z,100114.91
2019-04-20T04:10:54.788Z,100114.92
2019-04-20T04:13:14.901Z,100114.09
2019-04-20T04:15:53.252Z,100116.31
2019-04-20T04:18:25.388Z,100117.21
2019-04-20T04:20:54.034Z,100117.02
2019-04-20T04:23:35.598Z,100115.80
2019-04-20T04:28:37.128Z,100123.13
2019-04-20T04:31:08.195Z,100123.88
2019-04-20T04:36:05.851Z,100125.97
2019-04-20T04:38:41.916Z,100128.78
2019-04-20T04:41:17.094Z,100126.80
2019-04-20T04:43:37.263Z,100134.05
2019-04-20T04:45:51.211Z,100132.55
2019-04-20T04:48:27.575Z,100132.50
2019-04-20T04:50:57.329Z,100140.25
2019-04-20T04:53:30.377Z,100141.38
2019-04-20T04:55:56.317Z,100145.13
2019-04-20T04:58:21.595Z,100146.96
2019-04-20T05:00:51.345Z,100147.97
2019-04-20T05:03:38.651Z,100148.98
2019-04-20T05:06:14.763Z,100153.30
2019-04-20T05:08:31.666Z,100150.98
2019-04-20T05:10:54.127Z,100148.98
2019-04-20T05:13:27.680Z,100150.48
2019-04-20T05:16:09.795Z,100149.23
2019-04-20T05:18:45.155Z,100144.36
2019-04-20T05:21:15.338Z,100152.66
2019-04-20T05:23:37.810Z,100143.38
2019-04-20T05:26:20.019Z,100149.14
2019-04-20T05:28:46.110Z,100151.13
2019-04-20T05:31:09.389Z,100151.03
2019-04-20T05:34:02.310Z,100145.63
2019-04-20T05:36:25.626Z,100148.91
2019-04-20T05:39:02.257Z,100148.00
2019-04-20T05:41:24.107Z,100150.81
2019-04-20T05:43:56.513Z,100150.97
2019-04-20T05:46:42.383Z,100160.72
2019-04-20T05:49:02.607Z,100155.41
2019-04-20T05:51:38.307Z,100156.30
2019-04-20T05:54:04.459Z,100156.21
2019-04-20T05:56:37.293Z,100162.16
2019-04-20T05:58:59.655Z,100164.93
2019-04-20T06:01:34.497Z,100162.47
2019-04-20T06:03:59.332Z,100161.25
2019-04-20T06:06:34.640Z,100159.79
2019-04-20T06:09:06.849Z,100161.16
2019-04-20T06:11:38.439Z,100159.55
2019-04-20T06:13:50.709Z,100156.63
2019-04-20T06:16:40.380Z,100160.23
2019-04-20T06:19:18.774Z,100162.52
2019-04-20T06:21:36.789Z,100168.86
2019-04-20T06:24:10.602Z,100163.95
2019-04-20T06:26:51.970Z,100167.78
2019-04-20T06:29:07.236Z,100168.67
2019-04-20T06:31:40.681Z,100173.50
2019-04-20T06:34:32.801Z,100173.50
2019-04-20T06:37:07.150Z,100178.27
2019-04-20T06:39:34.850Z,100175.42
2019-04-20T06:42:14.039Z,100175.68
2019-04-20T06:44:31.993Z,100176.20
2019-04-20T06:47:16.245Z,100180.04
2019-04-20T06:49:34.515Z,100185.79
2019-04-20T06:52:10.139Z,100179.11
2019-04-20T06:54:33.873Z,100172.83
2019-04-20T06:57:07.226Z,100173.52
2019-04-20T06:59:42.959Z,100177.78
2019-04-20T07:07:11.583Z,100178.22
2019-04-20T07:09:47.408Z,100175.81
2019-04-20T07:12:02.698Z,100182.36
2019-04-20T07:14:28.832Z,100183.83
2019-04-20T07:17:30.849Z,100179.86
2019-04-20T07:19:45.367Z,100181.79
2019-04-20T07:25:01.303Z,100182.72
2019-04-20T07:27:19.912Z,100185.25
2019-04-20T07:29:52.023Z,100187.70
2019-04-20T07:32:13.223Z,100191.80
2019-04-20T07:34:51.349Z,100181.95
2019-04-20T07:37:55.054Z,100180.70
2019-04-20T07:39:53.830Z,100183.36
2019-04-20T07:42:28.465Z,100180.06
2019-04-20T07:47:33.053Z,100181.77
2019-04-20T07:49:50.031Z,100181.77
2019-04-20T07:52:04.011Z,100185.03
2019-04-20T07:55:12.429Z,100181.69
2019-04-20T07:57:22.532Z,100179.92
2019-04-20T07:59:52.834Z,100178.08
2019-04-20T08:02:32.392Z,100174.65
2019-04-20T08:04:55.314Z,100181.92
2019-04-20T08:07:12.728Z,100175.15
2019-04-20T08:09:50.819Z,100175.92
2019-04-20T08:12:43.816Z,100175.03
2019-04-20T08:15:18.144Z,100172.02
2019-04-20T08:17:48.586Z,100168.22
2019-04-20T08:20:05.830Z,100172.71
2019-04-20T08:22:38.892Z,100170.38
2019-04-20T08:24:55.339Z,100165.55
2019-04-20T08:27:23.461Z,100172.39
2019-04-20T08:30:09.288Z,100170.88
2019-04-20T08:32:58.244Z,100165.66
2019-04-20T08:35:42.319Z,100168.38
2019-04-20T08:38:24.163Z,100175.47
2019-04-20T08:40:37.286Z,100174.85
2019-04-20T08:43:20.842Z,100162.66
2019-04-20T08:45:42.045Z,100169.02
2019-04-20T08:48:15.162Z,100163.87
2019-04-20T08:50:41.326Z,100162.94
2019-04-20T08:55:40.053Z,100161.00
2019-04-20T08:57:51.738Z,100161.16
2019-04-20T09:00:29.363Z,100163.14
2019-04-20T09:02:55.616Z,100169.89
2019-04-20T09:05:34.728Z,100164.27
2019-04-20T09:08:02.515Z,100163.20
2019-04-20T09:10:53.983Z,100164.93
2019-04-20T09:13:05.811Z,100165.72
2019-04-20T09:15:23.446Z,100160.80
2019-04-20T09:18:16.926Z,100157.52
2019-04-20T09:20:48.730Z,100155.58
2019-04-20T09:23:30.033Z,100157.28
2019-04-20T09:26:02.445Z,100162.05
2019-04-20T09:28:29.826Z,100161.48
2019-04-20T09:31:14.308Z,100155.55
2019-04-20T09:33:47.030Z,100157.05
2019-04-20T09:36:21.091Z,100155.25
2019-04-20T09:39:01.169Z,100148.13
2019-04-20T09:41:54.885Z,100142.91
2019-04-20T09:44:02.534Z,100141.11
2019-04-20T09:46:37.769Z,100143.17
2019-04-20T09:49:13.053Z,100135.91
2019-04-20T09:51:51.158Z,100136.23
2019-04-20T09:54:24.439Z,100136.78
2019-04-20T09:56:55.225Z,100130.77
2019-04-20T09:59:27.014Z,100134.95
2019-04-20T10:01:41.912Z,100125.59
2019-04-20T10:04:03.527Z,100124.62
2019-04-20T10:06:35.906Z,100132.77
2019-04-20T10:09:05.004Z,100131.53
2019-04-20T10:11:32.598Z,100119.77
2019-04-20T10:14:02.027Z,100123.69
2019-04-20T10:16:31.504Z,100113.19
2019-04-20T10:19:00.746Z,100116.06
2019-04-20T10:21:29.956Z,100127.02
2019-04-20T10:23:58.963Z,100119.25
2019-04-20T10:26:27.526Z,100120.06
2019-04-20T10:28:57.379Z,100118.44
2019-04-20T10:31:26.498Z,100124.45
2019-04-20T10:33:55.713Z,100114.45
2019-04-20T10:36:42.092Z,100118.52
2019-04-20T10:39:11.014Z,100112.77
2019-04-20T10:41:48.353Z,100109.86
2019-04-20T10:44:11.199Z,100099.28
2019-04-20T10:46:40.732Z,100105.31
2019-04-20T10:49:09.687Z,100117.72
2019-04-20T10:51:39.959Z,100113.27
2019-04-20T10:54:08.790Z,100108.09
2019-04-20T10:56:37.416Z,100112.48
2019-04-20T10:59:06.017Z,100110.67
2019-04-20T11:01:35.724Z,100106.86
2019-04-20T11:04:04.926Z,100120.38
2019-04-20T11:06:34.538Z,100107.31
2019-04-20T11:09:04.686Z,100104.02
2019-04-20T11:11:34.174Z,100100.97
2019-04-20T11:14:08.360Z,100116.75
2019-04-20T11:16:33.769Z,100097.52
2019-04-20T11:19:03.275Z,100095.84
2019-04-20T11:21:32.333Z,100090.31
2019-04-20T11:24:00.879Z,100099.97
2019-04-20T11:26:29.323Z,100090.80
2019-04-20T11:28:58.042Z,100086.05
2019-04-20T11:31:35.705Z,100092.77
2019-04-20T11:33:56.698Z,100086.32
2019-04-20T11:36:25.356Z,100079.06
2019-04-20T11:38:54.403Z,100081.09
2019-04-20T11:41:26.084Z,100075.92
2019-04-20T11:43:53.794Z,100073.77
2019-04-20T11:46:22.826Z,100062.98
2019-04-20T11:48:51.821Z,100066.84
2019-04-20T11:51:21.525Z,100062.67
2019-04-20T11:53:50.213Z,100052.38
2019-04-20T11:56:24.057Z,100049.02
2019-04-20T11:58:49.169Z,100045.87
2019-04-20T12:01:22.545Z,100047.27
2019-04-20T12:03:58.421Z,100039.00
2019-04-20T12:06:21.068Z,100039.17
2019-04-20T12:08:49.796Z,100043.45
2019-04-20T12:11:26.582Z,100035.00
2019-04-20T12:13:48.984Z,100039.30
2019-04-20T12:16:17.491Z,100033.63
2019-04-20T12:18:46.437Z,100032.53
2019-04-20T12:21:14.968Z,100030.40
2019-04-20T12:23:44.507Z,100024.19
2019-04-20T12:26:13.154Z,100023.89
2019-04-20T12:28:41.685Z,100019.34
2019-04-20T12:31:14.743Z,100020.75
2019-04-20T12:33:40.391Z,100015.00
2019-04-20T12:36:10.391Z,100013.55
2019-04-20T12:38:39.173Z,100014.87
2019-04-20T12:41:10.964Z,100016.95
2019-04-20T12:43:38.792Z,100015.16
2019-04-20T12:46:07.674Z,100010.75
2019-04-20T12:48:37.636Z,100011.32
2019-04-20T12:51:06.162Z,100013.33
2019-04-20T12:53:34.971Z,100007.81
2019-04-20T12:56:04.404Z,100000.29
2019-04-20T12:58:32.982Z,100003.80
2019-04-20T13:01:02.601Z,99998.61
2019-04-20T13:03:31.750Z,99992.89
2019-04-20T13:06:01.858Z,100004.17
2019-04-20T13:08:36.647Z,100000.66
2019-04-20T13:11:04.603Z,99981.84
2019-04-20T13:13:34.681Z,99980.01
2019-04-20T13:16:14.334Z,99977.68
2019-04-20T13:18:45.452Z,99975.02
2019-04-20T13:21:14.034Z,99972.28
2019-04-20T13:23:42.832Z,99967.53
2019-04-20T13:26:12.753Z,99960.00
2019-04-20T13:28:41.465Z,99960.00
2019-04-20T13:31:09.933Z,99953.58
2019-04-20T13:33:39.097Z,99949.91
2019-04-20T13:36:08.202Z,99940.23
2019-04-20T13:38:36.713Z,99937.06
2019-04-20T13:41:06.228Z,99938.59
2019-04-20T13:43:35.529Z,99931.17
2019-04-20T13:46:04.934Z,99932.66
2019-04-20T13:48:33.431Z,99932.10
2019-04-20T13:51:02.321Z,99919.84
2019-04-20T13:53:30.924Z,99919.84
2019-04-20T13:56:01.412Z,99926.08
2019-04-20T13:58:48.211Z,99921.66
2019-04-20T14:01:21.073Z,99918.00
2019-04-20T14:03:51.374Z,99916.78
2019-04-20T14:06:21.155Z,99917.27
2019-04-20T14:08:49.786Z,99918.48
2019-04-20T14:11:18.244Z,99908.18
2019-04-20T14:13:53.553Z,99906.01
2019-04-20T14:16:16.998Z,99911.45
2019-04-20T14:18:45.452Z,99905.77
2019-04-20T14:21:14.251Z,99899.42
2019-04-20T14:23:43.216Z,99891.11
2019-04-20T14:26:12.659Z,99897.34
2019-04-20T14:28:41.205Z,99895.68
2019-04-20T14:31:09.902Z,99894.32
2019-04-20T14:33:39.126Z,99888.02
2019-04-20T14:36:08.768Z,99884.24
2019-04-20T14:38:38.325Z,99884.38
2019-04-20T14:41:08.383Z,99876.42
2019-04-20T14:43:38.114Z,99879.63
2019-04-20T14:46:08.414Z,99867.56
2019-04-20T14:48:37.027Z,99873.09
2019-04-20T14:51:05.763Z,99866.08
2019-04-20T14:53:35.413Z,99862.81
2019-04-20T14:56:05.329Z,99862.46
2019-04-20T14:58:41.440Z,99858.95
2019-04-20T15:01:10.799Z,99858.59
2019-04-20T15:03:40.843Z,99853.04
2019-04-20T15:06:11.668Z,99855.93
2019-04-20T15:08:40.791Z,99855.71
2019-04-20T15:11:09.437Z,99852.03
2019-04-20T15:13:40.629Z,99848.02
2019-04-20T15:16:10.731Z,99844.70
2019-04-20T15:18:53.580Z,99846.92
2019-04-20T15:21:24.749Z,99851.13
2019-04-20T15:23:53.569Z,99843.84
2019-04-20T15:26:22.470Z,99838.84
2019-04-20T15:28:52.419Z,99838.71
2019-04-20T15:31:21.025Z,99847.91
2019-04-20T15:33:50.746Z,99834.01
2019-04-20T15:36:20.131Z,99840.86
2019-04-20T15:38:49.387Z,99834.70
2019-04-20T15:41:18.521Z,99835.64
2019-04-20T15:43:47.354Z,99835.55
2019-04-20T15:46:17.117Z,99830.31
2019-04-20T15:48:46.160Z,99837.36
2019-04-20T15:51:17.133Z,99832.41
2019-04-20T15:53:47.350Z,99838.55
2019-04-20T15:56:16.598Z,99844.92
2019-04-20T15:58:46.150Z,99839.60
2019-04-20T16:01:16.370Z,99838.77
2019-04-20T16:03:47.646Z,99833.69
2019-04-20T16:06:17.065Z,99833.06
2019-04-20T16:08:48.221Z,99838.50
2019-04-20T16:11:17.404Z,99832.45
2019-04-20T16:13:49.894Z,99836.15
2019-04-20T16:16:16.318Z,99836.03
2019-04-20T16:18:46.568Z,99831.12
2019-04-20T16:21:20.886Z,99826.48
2019-04-20T16:23:54.697Z,99831.05
2019-04-20T16:26:25.918Z,99833.94
2019-04-20T16:28:55.494Z,99823.09
2019-04-20T16:31:24.534Z,99820.38
2019-04-20T16:33:55.630Z,99812.11
2019-04-20T16:36:23.374Z,99807.59
2019-04-20T16:38:53.173Z,99812.30
2019-04-20T16:41:22.303Z,99810.03
2019-04-20T16:43:51.619Z,99805.57
2019-04-20T16:46:23.669Z,99812.02
2019-04-20T16:48:50.597Z,99806.05
2019-04-20T16:51:19.058Z,99812.84
2019-04-20T16:53:47.914Z,99818.63
2019-04-20T16:56:18.872Z,99807.47
2019-04-20T16:58:48.309Z,99809.73
2019-04-20T17:01:17.316Z,99807.23
2019-04-20T17:03:55.161Z,99793.56
2019-04-20T17:06:15.993Z,99811.52
2019-04-20T17:08:45.789Z,99802.97
2019-04-20T17:11:15.903Z,99802.18
2019-04-20T17:13:49.662Z,99801.91
2019-04-20T17:16:15.603Z,99798.89
2019-04-20T17:18:47.885Z,99795.86
2019-04-20T17:21:21.739Z,99794.93
2019-04-20T17:23:47.023Z,99803.22
2019-04-20T17:26:17.296Z,99794.05
2019-04-20T17:29:03.917Z,99799.19
2019-04-20T17:31:47.273Z,99799.64
2019-04-20T17:36:46.614Z,99804.72
2019-04-20T17:39:25.909Z,99793.65
2019-04-20T17:42:02.956Z,99798.86
2019-04-20T17:44:31.491Z,99795.63
2019-04-20T17:46:58.694Z,99803.41
2019-04-20T17:49:31.459Z,99801.87
2019-04-20T17:52:12.245Z,99800.25
2019-04-20T17:54:22.107Z,99797.86
2019-04-20T17:56:52.171Z,99800.39
2019-04-20T17:59:22.261Z,99798.50
2019-04-20T18:02:07.778Z,99795.11
2019-04-20T18:07:28.183Z,99798.97
2019-04-20T18:10:01.528Z,99801.52
2019-04-20T18:12:09.548Z,99803.77
2019-04-20T18:14:47.966Z,99803.53
2019-04-20T18:17:25.840Z,99802.29
2019-04-20T18:19:57.121Z,99804.75
2019-04-20T18:22:25.847Z,99806.58
2019-04-20T18:25:12.178Z,99803.70
2019-04-20T18:27:41.121Z,99807.81
2019-04-20T18:30:11.377Z,99804.89
2019-04-20T18:32:35.585Z,99796.55
2019-04-20T18:35:16.389Z,99800.77
2019-04-20T18:37:52.573Z,99798.64
2019-04-20T18:40:26.659Z,99803.52
2019-04-20T18:42:55.922Z,99807.59
2019-04-20T18:45:29.586Z,99812.24
2019-04-20T18:48:05.901Z,99810.59
2019-04-20T18:50:26.604Z,99805.59
2019-04-20T18:52:49.783Z,99808.42
2019-04-20T18:55:26.368Z,99812.16
2019-04-20T18:57:49.276Z,99811.05
2019-04-20T19:00:26.968Z,99817.03
2019-04-20T19:02:54.375Z,99818.51
2019-04-20T19:05:21.961Z,99815.63
2019-04-20T19:07:59.357Z,99821.77
2019-04-20T19:10:27.177Z,99812.45
2019-04-20T19:12:59.872Z,99822.53
2019-04-20T19:15:47.543Z,99821.30
2019-04-20T19:18:12.890Z,99818.75
2019-04-20T19:20:34.989Z,99827.78
2019-04-20T19:23:04.124Z,99823.65
2019-04-20T19:25:36.960Z,99824.75
2019-04-20T19:28:04.740Z,99824.04
2019-04-20T19:30:41.290Z,99830.78
2019-04-20T19:33:20.584Z,99831.10
2019-04-20T19:35:48.542Z,99830.80
2019-04-20T19:38:13.688Z,99837.95
2019-04-20T19:40:47.918Z,99837.92
2019-04-20T19:43:15.746Z,99839.54
2019-04-20T19:46:07.384Z,99840.11
2019-04-20T19:48:22.353Z,99840.08
2019-04-20T19:51:00.819Z,99843.31
2019-04-20T19:53:45.529Z,99844.07
2019-04-20T19:55:47.762Z,99840.12
2019-04-20T19:58:24.978Z,99844.55
2019-04-20T20:00:53.221Z,99840.87
2019-04-20T20:03:21.621Z,99847.55
2019-04-20T20:05:53.792Z,99846.77
2019-04-20T20:08:24.410Z,99855.28
2019-04-20T20:10:52.473Z,99859.57
2019-04-20T20:13:27.613Z,99854.47
2019-04-20T20:15:57.435Z,99855.50
2019-04-20T20:18:40.226Z,99857.80
2019-04-20T20:21:09.956Z,99857.53
2019-04-20T20:23:24.001Z,99850.75
2019-04-20T20:25:53.207Z,99856.41
2019-04-20T20:28:31.097Z,99855.74
2019-04-20T20:31:05.090Z,99855.95
2019-04-20T20:33:41.960Z,99855.16
2019-04-20T20:36:01.966Z,99857.93
2019-04-20T20:38:31.688Z,99858.38
2019-04-20T20:41:05.830Z,99856.09
2019-04-20T20:43:39.404Z,99864.57
2019-04-20T20:46:06.488Z,99868.95
2019-04-20T20:48:38.533Z,99864.41
2019-04-20T20:51:12.077Z,99862.37
2019-04-20T20:53:41.406Z,99859.01
2019-04-20T20:56:06.601Z,99862.28
2019-04-20T20:58:36.207Z,99861.62
2019-04-20T21:01:04.376Z,99856.21
2019-04-20T21:03:32.176Z,99854.67
2019-04-20T21:05:55.683Z,99860.23
2019-04-20T21:08:24.074Z,99859.64
2019-04-20T21:10:52.745Z,99857.61
2019-04-20T21:13:21.455Z,99858.00
2019-04-20T21:15:54.108Z,99858.00
2019-04-20T21:18:45.736Z,99859.64
2019-04-20T21:21:10.275Z,99859.32
2019-04-20T21:23:35.364Z,99855.16
2019-04-20T21:26:21.729Z,99861.57
2019-04-20T21:28:41.984Z,99860.48
2019-04-20T21:31:15.904Z,99859.48
2019-04-20T21:33:42.844Z,99860.89
2019-04-20T21:36:13.540Z,99862.82
2019-04-20T21:38:44.354Z,99858.97
2019-04-20T21:41:16.470Z,99859.48
2019-04-20T21:43:44.563Z,99854.97
2019-04-20T21:46:13.884Z,99859.48
2019-04-20T21:48:55.874Z,99856.63
2019-04-20T21:51:24.385Z,99854.58
2019-04-20T21:53:44.298Z,99858.25
2019-04-20T21:56:12.873Z,99853.61
2019-04-20T21:58:48.270Z,99855.50
2019-04-20T22:01:22.255Z,99858.19
2019-04-20T22:03:44.359Z,99854.62
2019-04-20T22:06:14.081Z,99851.70
2019-04-20T22:08:49.337Z,99844.39
2019-04-20T22:11:13.590Z,99846.17
2019-04-20T22:13:44.572Z,99844.33
2019-04-20T22:16:14.629Z,99839.70
2019-04-20T22:18:53.012Z,99842.63
2019-04-20T22:21:22.712Z,99835.38
2019-04-20T22:24:00.192Z,99833.56
2019-04-20T22:26:26.833Z,99835.59
2019-04-20T22:28:44.622Z,99834.53
2019-04-20T22:31:14.070Z,99832.89
2019-04-20T22:33:44.945Z,99836.38
2019-04-20T22:36:14.559Z,99829.42
2019-04-20T22:39:03.426Z,99838.30
2019-04-20T22:41:34.298Z,99831.63
2019-04-20T22:44:11.507Z,99826.71
2019-04-20T22:46:37.592Z,99829.17
2019-04-20T22:49:20.936Z,99822.89
2019-04-20T22:51:50.758Z,99820.39
2019-04-20T22:54:23.167Z,99820.95
2019-04-20T22:56:49.979Z,99818.63
2019-04-20T22:59:13.959Z,99819.88
2019-04-20T23:01:45.806Z,99822.34
2019-04-20T23:04:08.831Z,99821.39
2019-04-20T23:06:42.426Z,99818.49
2019-04-20T23:09:11.614Z,99809.38
2019-04-20T23:11:40.366Z,99809.38
2019-04-20T23:14:10.690Z,99815.95
2019-04-20T23:16:43.940Z,99806.64
2019-04-20T23:19:10.296Z,99806.13
2019-04-20T23:21:40.616Z,99795.78
2019-04-20T23:24:11.385Z,99795.78
2019-04-20T23:26:42.548Z,99797.50
2019-04-20T23:29:11.284Z,99798.67
2019-04-20T23:31:46.135Z,99788.48
2019-04-20T23:34:16.521Z,99790.09
2019-04-20T23:36:43.845Z,99789.05
2019-04-20T23:39:10.840Z,99781.56
2019-04-20T23:41:43.512Z,99775.59
2019-04-20T23:44:19.010Z,99773.63
2019-04-20T23:46:53.467Z,99773.73
2019-04-20T23:49:27.196Z,99760.91
2019-04-20T23:52:09.971Z,99771.98
2019-04-20T23:54:26.271Z,99771.66
2019-04-20T23:56:53.586Z,99763.48
2019-04-20T23:59:30.795Z,99760.97
